Time;durP1;ratioP1;P1;durP2;ratioP2;P2;SDS_P1;SDS_P2;PMS_P1;PMS_P2;Temp;Humidity;BMP_temperature;BMP_pressure;BME280_temperature;BME280_humidity;BME280_pressure;Samples;Min_cycle;Max_cycle;Signal;HPM_P1;HPM_P2
2021/12/13 00:01:26;;;;;;;39.07;26.13;;;11.20;99.90;;;;;;5073766;28;20180;-72
2021/12/13 00:03:57;;;;;;;39.60;25.67;;;11.10;99.90;;;;;;5073697;28;20725;-72
2021/12/13 00:06:47;;;;;;;36.53;24.93;;;11.20;99.90;;;;;;5072102;28;20257;-73
2021/12/13 00:09:17;;;;;;;38.47;25.87;;;11.20;99.90;;;;;;5072732;28;20203;-72
2021/12/13 00:11:46;;;;;;;38.77;24.90;;;11.20;99.90;;;;;;5072293;28;20631;-73
2021/12/13 00:14:34;;;;;;;39.27;25.77;;;11.20;99.90;;;;;;5072843;28;20216;-72
2021/12/13 00:17:16;;;;;;;43.03;27.43;;;11.10;99.90;;;;;;5073232;28;20176;-72
2021/12/13 00:19:47;;;;;;;38.73;26.07;;;11.20;99.90;;;;;;5073256;28;20179;-72
2021/12/13 00:22:22;;;;;;;43.57;25.93;;;11.20;99.90;;;;;;5073262;28;20167;-73
2021/12/13 00:24:49;;;;;;;41.30;25.97;;;11.20;99.90;;;;;;5073057;28;20222;-72
2021/12/13 00:27:20;;;;;;;43.23;27.57;;;11.20;99.90;;;;;;5072955;28;20165;-71
2021/12/13 00:30:04;;;;;;;39.97;26.33;;;11.20;99.90;;;;;;5072369;28;20183;-72
2021/12/13 00:32:47;;;;;;;41.67;26.33;;;11.20;99.90;;;;;;5073266;28;20226;-72
2021/12/13 00:35:19;;;;;;;40.60;25.57;;;11.30;99.90;;;;;;5072993;28;20270;-71
2021/12/13 00:37:49;;;;;;;40.70;25.87;;;11.30;99.90;;;;;;5072895;28;20262;-71
2021/12/13 00:40:26;;;;;;;39.47;25.90;;;11.20;99.90;;;;;;5072944;28;20173;-72
2021/12/13 00:42:57;;;;;;;38.07;25.17;;;11.20;99.90;;;;;;5072918;28;20251;-72
2021/12/13 00:45:27;;;;;;;39.40;25.73;;;11.10;99.90;;;;;;5072749;28;20173;-71
2021/12/13 00:47:53;;;;;;;43.03;26.60;;;11.10;99.90;;;;;;5072904;28;20685;-72
2021/12/13 00:50:29;;;;;;;41.80;25.90;;;11.10;99.90;;;;;;5073084;28;20181;-72
2021/12/13 00:52:55;;;;;;;38.00;25.10;;;11.10;99.90;;;;;;5072908;28;20259;-72
2021/12/13 00:55:29;;;;;;;39.37;25.80;;;11.10;99.90;;;;;;5072883;28;20267;-72
2021/12/13 00:58:11;;;;;;;39.20;25.70;;;11.10;99.90;;;;;;5072425;28;20173;-72
2021/12/13 01:01:03;;;;;;;38.30;23.97;;;11.10;99.90;;;;;;5073029;28;20325;-72
2021/12/13 01:03:28;;;;;;;37.83;24.13;;;11.10;99.90;;;;;;5069796;28;20275;-72
2021/12/13 01:06:34;;;;;;;36.30;23.77;;;11.10;99.90;;;;;;5072782;28;20558;-72
2021/12/13 01:08:59;;;;;;;38.13;24.47;;;11.10;99.90;;;;;;5072604;28;20167;-72
2021/12/13 01:11:47;;;;;;;35.87;23.70;;;11.20;99.90;;;;;;5072541;28;20164;-71
2021/12/13 01:14:14;;;;;;;34.87;23.60;;;11.10;99.90;;;;;;5072257;28;20545;-72
2021/12/13 01:16:54;;;;;;;36.57;23.30;;;11.10;99.90;;;;;;5072729;28;20500;-72
2021/12/13 01:19:50;;;;;;;31.60;22.73;;;11.10;99.90;;;;;;5072737;28;20167;-72
2021/12/13 01:22:55;;;;;;;36.57;23.60;;;11.10;99.90;;;;;;5072536;28;20185;-72
2021/12/13 01:25:48;;;;;;;32.77;21.70;;;11.20;99.90;;;;;;5072265;28;20582;-72
2021/12/13 01:28:14;;;;;;;32.90;20.97;;;11.20;99.90;;;;;;5072107;28;20161;-72
2021/12/13 01:30:47;;;;;;;36.60;21.93;;;11.20;99.90;;;;;;5072627;28;20639;-72
2021/12/13 01:33:14;;;;;;;32.33;21.57;;;11.20;99.90;;;;;;5072830;28;20279;-72
2021/12/13 01:35:43;;;;;;;32.70;21.93;;;11.20;99.90;;;;;;5072324;28;20176;-71
2021/12/13 01:38:21;;;;;;;32.00;21.23;;;11.20;99.90;;;;;;5072330;28;20180;-72
2021/12/13 01:40:52;;;;;;;35.53;21.93;;;11.10;99.90;;;;;;5074975;28;20156;-72
2021/12/13 01:43:26;;;;;;;35.10;22.30;;;11.10;99.90;;;;;;5075816;28;20620;-72
2021/12/13 01:45:53;;;;;;;33.57;22.07;;;11.10;99.90;;;;;;5076089;28;20191;-72
2021/12/13 01:48:23;;;;;;;34.47;21.57;;;11.10;99.90;;;;;;5075936;28;20168;-72
2021/12/13 01:50:53;;;;;;;30.97;20.93;;;11.00;99.90;;;;;;5076149;28;20186;-72
2021/12/13 01:53:50;;;;;;;31.50;21.50;;;11.10;99.90;;;;;;5075775;28;20210;-72
2021/12/13 01:59:49;;;;;;;32.33;21.07;;;11.00;99.90;;;;;;5075990;28;20530;-72
2021/12/13 02:02:18;;;;;;;31.23;19.77;;;11.00;99.90;;;;;;5075714;28;20173;-72
2021/12/13 02:04:49;;;;;;;34.27;20.17;;;11.00;99.90;;;;;;5075916;28;20193;-71
2021/12/13 02:07:14;;;;;;;35.43;21.43;;;11.00;99.90;;;;;;5075648;28;20600;-71
2021/12/13 02:09:44;;;;;;;34.23;21.17;;;10.90;99.90;;;;;;5075670;28;20259;-72
2021/12/13 02:12:14;;;;;;;33.17;20.67;;;10.90;99.90;;;;;;5075465;28;20204;-72
2021/12/13 02:16:56;;;;;;;34.40;21.50;;;10.90;99.90;;;;;;5075643;28;20251;-71
2021/12/13 02:17:41;;;;;;;32.27;21.13;;;11.00;99.90;;;;;;5075462;28;20218;-71
2021/12/13 02:20:23;;;;;;;30.50;20.40;;;11.20;99.90;;;;;;5075721;28;20172;-72
2021/12/13 02:22:51;;;;;;;34.27;20.93;;;11.20;99.90;;;;;;5075102;28;20195;-71
2021/12/13 02:25:29;;;;;;;31.37;20.83;;;11.10;99.90;;;;;;5074967;28;20175;-71
2021/12/13 02:28:08;;;;;;;28.87;19.10;;;11.10;99.90;;;;;;5075300;28;20352;-71
2021/12/13 02:30:43;;;;;;;30.43;20.37;;;11.10;99.90;;;;;;5074221;28;20172;-71
2021/12/13 02:33:15;;;;;;;32.97;19.67;;;11.10;99.90;;;;;;5073922;28;20541;-71
2021/12/13 02:35:53;;;;;;;30.43;19.80;;;11.00;99.90;;;;;;5075122;28;20711;-72
2021/12/13 02:38:20;;;;;;;30.30;19.83;;;11.00;99.90;;;;;;5074727;28;20210;-72
2021/12/13 02:40:46;;;;;;;29.63;18.57;;;11.00;99.90;;;;;;5075075;28;20321;-73
2021/12/13 02:43:16;;;;;;;32.43;19.53;;;11.00;99.90;;;;;;5075083;28;20176;-72
2021/12/13 02:45:47;;;;;;;28.77;18.50;;;11.10;99.90;;;;;;5074981;28;20187;-73
2021/12/13 02:48:38;;;;;;;32.57;20.20;;;11.10;99.90;;;;;;5075020;28;20191;-73
2021/12/13 02:51:16;;;;;;;31.97;19.53;;;11.10;99.90;;;;;;5074520;28;20639;-72
2021/12/13 02:54:02;;;;;;;30.13;19.57;;;11.10;99.90;;;;;;5074493;28;20351;-72
2021/12/13 02:56:37;;;;;;;32.17;19.33;;;11.10;99.90;;;;;;5074782;28;20204;-73
2021/12/13 02:59:06;;;;;;;30.23;19.47;;;11.00;99.90;;;;;;5074649;28;20306;-72
2021/12/13 03:01:35;;;;;;;29.60;18.30;;;11.00;99.90;;;;;;5073529;28;20249;-71
2021/12/13 03:04:06;;;;;;;28.80;18.53;;;10.90;99.90;;;;;;5074605;28;20180;-72
2021/12/13 03:06:35;;;;;;;28.90;18.07;;;10.90;99.90;;;;;;5074430;28;20183;-73
2021/12/13 03:09:11;;;;;;;29.17;18.43;;;11.00;99.90;;;;;;5074002;28;20169;-72
2021/12/13 03:11:38;;;;;;;31.60;18.63;;;11.00;99.90;;;;;;5074328;28;20164;-71
2021/12/13 03:14:09;;;;;;;26.60;17.30;;;11.00;99.90;;;;;;5074317;28;20204;-73
2021/12/13 03:16:50;;;;;;;28.13;18.27;;;11.00;99.90;;;;;;5074484;28;20264;-71
2021/12/13 03:19:38;;;;;;;31.07;19.20;;;11.00;99.90;;;;;;5073237;28;20577;-71
2021/12/13 03:22:22;;;;;;;28.00;17.57;;;10.90;99.90;;;;;;5074144;28;20214;-71
2021/12/13 03:25:14;;;;;;;27.03;18.07;;;10.90;99.90;;;;;;5073831;28;20244;-71
2021/12/13 03:27:55;;;;;;;28.77;18.20;;;10.90;99.90;;;;;;5072824;28;20302;-71
2021/12/13 03:30:25;;;;;;;29.27;17.83;;;11.00;99.90;;;;;;5073932;28;20165;-71
2021/12/13 03:33:05;;;;;;;28.27;17.43;;;11.00;99.90;;;;;;5074038;28;20211;-72
2021/12/13 03:35:40;;;;;;;26.50;17.93;;;11.00;99.90;;;;;;5074016;28;20223;-71
2021/12/13 03:38:13;;;;;;;29.83;17.77;;;11.00;99.90;;;;;;5072178;28;20620;-72
2021/12/13 03:40:40;;;;;;;28.40;17.93;;;11.10;99.90;;;;;;5073788;28;20659;-71
2021/12/13 03:43:12;;;;;;;30.10;18.70;;;11.00;99.90;;;;;;5073497;28;20165;-71
2021/12/13 03:45:50;;;;;;;27.40;17.60;;;11.00;99.90;;;;;;5073846;28;20172;-71
2021/12/13 03:48:20;;;;;;;27.50;17.23;;;10.90;99.90;;;;;;5073835;28;20169;-71
2021/12/13 03:50:51;;;;;;;27.07;18.07;;;11.00;99.90;;;;;;5073563;28;20172;-71
2021/12/13 03:53:21;;;;;;;25.53;17.53;;;11.00;99.90;;;;;;5073037;28;20177;-71
2021/12/13 03:55:51;;;;;;;30.97;17.70;;;11.00;99.90;;;;;;5073760;28;20249;-71
2021/12/13 03:58:21;;;;;;;30.57;17.83;;;11.00;99.90;;;;;;5073693;28;20264;-71
2021/12/13 04:00:59;;;;;;;27.20;17.77;;;11.00;99.90;;;;;;5073869;28;20165;-71
2021/12/13 04:03:27;;;;;;;26.57;17.37;;;11.00;99.90;;;;;;5072598;28;20284;-71
2021/12/13 04:05:55;;;;;;;29.83;18.80;;;10.90;99.90;;;;;;5073086;28;20197;-71
2021/12/13 04:08:21;;;;;;;28.27;17.70;;;10.90;99.90;;;;;;5072975;28;20176;-71
2021/12/13 04:10:54;;;;;;;27.33;17.60;;;10.90;99.90;;;;;;5073467;28;20172;-71
2021/12/13 04:13:24;;;;;;;25.97;17.50;;;10.90;99.90;;;;;;5073110;28;20188;-72
2021/12/13 04:16:10;;;;;;;29.43;18.20;;;11.00;99.90;;;;;;5073173;28;20211;-72
2021/12/13 04:21:20;;;;;;;25.97;16.73;;;10.90;99.90;;;;;;5072863;28;20180;-71
2021/12/13 04:23:57;;;;;;;25.90;16.10;;;10.80;99.90;;;;;;5072860;28;20251;-71
2021/12/13 04:26:24;;;;;;;26.43;18.03;;;10.80;99.90;;;;;;5073276;28;20184;-72
2021/12/13 04:28:53;;;;;;;27.87;17.87;;;10.80;99.90;;;;;;5073043;28;20180;-72
2021/12/13 04:31:24;;;;;;;27.70;18.33;;;10.90;99.90;;;;;;5072713;28;20180;-71
2021/12/13 04:34:02;;;;;;;28.73;17.70;;;10.90;99.90;;;;;;5072757;28;20215;-72
2021/12/13 04:36:39;;;;;;;30.23;18.00;;;10.80;99.90;;;;;;5072586;28;20317;-71
2021/12/13 04:39:18;;;;;;;29.43;17.53;;;10.90;99.90;;;;;;5072910;28;20251;-71
2021/12/13 04:41:51;;;;;;;29.97;18.37;;;10.90;99.90;;;;;;5071468;28;20168;-72
2021/12/13 04:44:37;;;;;;;26.83;17.80;;;10.90;99.90;;;;;;5073186;28;20187;-72
2021/12/13 04:47:33;;;;;;;26.30;18.03;;;10.90;99.90;;;;;;5072571;28;20531;-72
2021/12/13 04:50:06;;;;;;;29.77;17.30;;;10.90;99.90;;;;;;5070959;28;20610;-71
2021/12/13 04:52:34;;;;;;;29.67;17.93;;;11.00;99.90;;;;;;5072382;28;20180;-71
2021/12/13 04:55:00;;;;;;;27.53;18.03;;;11.00;99.90;;;;;;5072766;28;20216;-70
2021/12/13 04:57:27;;;;;;;27.90;18.07;;;11.10;99.90;;;;;;5072526;28;20172;-71
2021/12/13 05:00:00;;;;;;;27.43;17.80;;;11.00;99.90;;;;;;5072555;28;20176;-71
2021/12/13 05:02:26;;;;;;;28.57;17.57;;;11.00;99.90;;;;;;5072634;28;20160;-71
2021/12/13 05:04:57;;;;;;;27.67;17.50;;;11.00;99.90;;;;;;5071988;28;20196;-71
2021/12/13 05:07:25;;;;;;;27.33;17.70;;;11.00;99.90;;;;;;5071169;28;20535;-71
2021/12/13 05:09:52;;;;;;;25.27;16.57;;;11.10;99.90;;;;;;5072128;28;20184;-72
2021/12/13 05:12:22;;;;;;;25.00;15.53;;;11.10;99.90;;;;;;5072144;28;20276;-71
2021/12/13 05:14:53;;;;;;;27.57;17.33;;;11.10;99.90;;;;;;5073797;28;20208;-72
2021/12/13 05:17:21;;;;;;;28.00;17.53;;;11.00;99.90;;;;;;5076140;28;20161;-71
2021/12/13 05:19:51;;;;;;;26.63;16.67;;;11.00;99.90;;;;;;5075728;28;20177;-71
2021/12/13 05:22:19;;;;;;;28.33;16.43;;;10.90;99.90;;;;;;5076577;28;20175;-71
2021/12/13 05:24:52;;;;;;;25.73;16.23;;;11.00;99.90;;;;;;5076101;28;20227;-72
2021/12/13 05:27:32;;;;;;;25.77;16.93;;;11.00;99.90;;;;;;5074487;28;20176;-71
2021/12/13 05:30:23;;;;;;;28.17;16.93;;;11.10;99.90;;;;;;5076312;28;20191;-72
2021/12/13 05:32:55;;;;;;;29.83;17.17;;;11.10;99.90;;;;;;5075834;28;20662;-72
2021/12/13 05:35:26;;;;;;;26.93;17.00;;;11.10;99.90;;;;;;5075889;28;20219;-72
2021/12/13 05:37:56;;;;;;;29.23;16.97;;;11.20;99.90;;;;;;5074451;28;20187;-72
2021/12/13 05:40:23;;;;;;;23.07;14.93;;;11.20;99.90;;;;;;5075913;28;20165;-71
2021/12/13 05:42:54;;;;;;;23.73;14.83;;;11.10;99.90;;;;;;5075599;28;20196;-72
2021/12/13 05:45:41;;;;;;;24.00;14.97;;;11.10;99.90;;;;;;5075717;28;20278;-71
2021/12/13 05:48:09;;;;;;;24.30;15.33;;;11.10;99.90;;;;;;5075552;28;20229;-72
2021/12/13 05:50:44;;;;;;;24.43;15.57;;;11.10;99.90;;;;;;5074044;28;20677;-71
2021/12/13 05:53:35;;;;;;;22.83;15.10;;;11.10;99.90;;;;;;5075084;28;20229;-71
2021/12/13 05:56:15;;;;;;;23.60;15.47;;;11.10;99.90;;;;;;5075337;28;20200;-72
2021/12/13 05:58:48;;;;;;;21.07;13.87;;;11.10;99.90;;;;;;5075496;28;20180;-73
2021/12/13 06:01:29;;;;;;;21.93;13.90;;;11.10;99.90;;;;;;5074987;28;20199;-71
2021/12/13 06:04:08;;;;;;;21.07;14.23;;;11.20;99.90;;;;;;5074832;28;20702;-72
2021/12/13 06:06:44;;;;;;;20.10;13.57;;;11.20;99.90;;;;;;5075268;28;20164;-71
2021/12/13 06:09:30;;;;;;;19.23;11.90;;;11.20;99.90;;;;;;5074819;28;20173;-70
2021/12/13 06:12:04;;;;;;;17.13;11.33;;;11.20;99.90;;;;;;5074714;28;20192;-72
2021/12/13 06:14:30;;;;;;;13.80;10.43;;;11.10;99.90;;;;;;5074351;28;20679;-71
2021/12/13 06:17:17;;;;;;;14.27;10.83;;;11.20;99.90;;;;;;5074441;28;20211;-71
2021/12/13 06:19:54;;;;;;;16.10;9.77;;;11.10;99.90;;;;;;5074508;28;20172;-71
2021/12/13 06:22:23;;;;;;;13.30;10.00;;;11.20;99.90;;;;;;5072944;28;20177;-71
2021/12/13 06:24:59;;;;;;;12.97;9.87;;;11.10;99.90;;;;;;5073972;28;20699;-72
2021/12/13 06:27:31;;;;;;;13.43;9.43;;;11.10;99.90;;;;;;5073006;28;20172;-72
2021/12/13 06:30:07;;;;;;;14.37;9.47;;;11.10;99.90;;;;;;5074585;28;20267;-71
2021/12/13 06:32:51;;;;;;;13.27;9.13;;;11.10;99.90;;;;;;5073871;28;20184;-71
2021/12/13 06:35:34;;;;;;;14.50;9.70;;;11.10;99.90;;;;;;5073810;28;20230;-73
2021/12/13 06:38:19;;;;;;;11.80;9.10;;;11.00;99.90;;;;;;5073752;28;20216;-72
2021/12/13 06:40:54;;;;;;;12.47;9.57;;;11.00;99.90;;;;;;5073723;28;20196;-72
2021/12/13 06:43:37;;;;;;;12.47;9.00;;;11.00;99.90;;;;;;5074029;28;20172;-71
2021/12/13 06:46:23;;;;;;;12.60;9.33;;;11.00;99.90;;;;;;5073299;28;20636;-71
2021/12/13 06:49:09;;;;;;;11.13;8.70;;;11.00;99.90;;;;;;5074051;28;20226;-71
2021/12/13 06:51:47;;;;;;;10.50;8.50;;;11.00;99.90;;;;;;5073367;28;20186;-72
2021/12/13 06:54:29;;;;;;;11.43;8.70;;;10.90;99.90;;;;;;5073275;28;20203;-72
2021/12/13 06:57:03;;;;;;;13.30;9.23;;;10.90;99.90;;;;;;5073546;28;20171;-71
2021/12/13 06:59:34;;;;;;;13.47;9.13;;;10.90;99.90;;;;;;5072895;28;20180;-72
2021/12/13 07:02:08;;;;;;;16.53;9.50;;;11.00;99.90;;;;;;5073624;28;20168;-72
2021/12/13 07:04:47;;;;;;;11.47;8.73;;;11.00;99.90;;;;;;5074113;28;20192;-72
2021/12/13 07:07:13;;;;;;;14.40;9.47;;;11.00;99.90;;;;;;5072924;28;20632;-72
2021/12/13 07:09:40;;;;;;;12.07;8.93;;;10.90;99.90;;;;;;5073474;28;20176;-72
2021/12/13 07:12:15;;;;;;;11.57;8.80;;;10.90;99.90;;;;;;5073226;28;20164;-71
2021/12/13 07:14:42;;;;;;;13.23;8.77;;;10.90;99.90;;;;;;5072981;28;20204;-72
2021/12/13 07:17:27;;;;;;;14.83;9.00;;;10.80;99.90;;;;;;5073622;28;20251;-72
2021/12/13 07:19:54;;;;;;;12.83;8.83;;;10.90;99.90;;;;;;5073664;28;20180;-72
2021/12/13 07:22:24;;;;;;;14.07;8.60;;;10.90;99.90;;;;;;5071882;28;20358;-72
2021/12/13 07:24:53;;;;;;;10.97;8.23;;;10.90;99.90;;;;;;5073150;28;20224;-72
2021/12/13 07:27:23;;;;;;;11.70;9.03;;;11.00;99.90;;;;;;5073010;28;20251;-72
2021/12/13 07:29:57;;;;;;;11.47;8.53;;;11.00;99.90;;;;;;5072118;28;20241;-72
2021/12/13 07:32:32;;;;;;;10.73;8.93;;;11.00;99.90;;;;;;5072358;28;20200;-72
2021/12/13 07:35:07;;;;;;;11.33;9.13;;;10.90;99.90;;;;;;5072834;28;20215;-72
2021/12/13 07:37:57;;;;;;;11.70;8.07;;;10.90;99.90;;;;;;5072973;28;20175;-71
2021/12/13 07:40:42;;;;;;;10.07;8.03;;;10.90;99.90;;;;;;5072573;28;20632;-72
2021/12/13 07:43:22;;;;;;;9.60;8.40;;;10.90;99.90;;;;;;5072839;28;20176;-72
2021/12/13 07:46:20;;;;;;;9.97;8.00;;;10.90;99.90;;;;;;5072663;28;20177;-71
2021/12/13 07:48:45;;;;;;;10.23;8.27;;;10.80;99.90;;;;;;5066835;28;20656;-72
2021/12/13 07:51:34;;;;;;;10.97;8.90;;;10.90;99.90;;;;;;5072100;28;20267;-72
2021/12/13 07:54:00;;;;;;;12.77;8.30;;;11.00;99.90;;;;;;5072140;28;20216;-71
2021/12/13 07:56:44;;;;;;;14.63;8.87;;;11.00;99.90;;;;;;5071550;28;20632;-73
2021/12/13 07:59:17;;;;;;;9.03;7.80;;;11.00;99.90;;;;;;5070346;28;20184;-70
2021/12/13 08:01:52;;;;;;;9.03;7.07;;;11.00;99.90;;;;;;5072107;28;20179;-71
2021/12/13 08:04:28;;;;;;;9.20;7.33;;;11.00;99.90;;;;;;5072117;28;20218;-72
2021/12/13 08:07:05;;;;;;;10.67;8.50;;;11.00;99.90;;;;;;5070682;28;20172;-74
2021/12/13 08:09:31;;;;;;;11.83;7.97;;;11.00;99.90;;;;;;5072342;28;20222;-71
2021/12/13 08:12:02;;;;;;;9.77;7.93;;;11.00;99.90;;;;;;5072378;28;20180;-71
2021/12/13 08:14:37;;;;;;;12.00;8.77;;;11.10;99.90;;;;;;5072131;28;20636;-71
2021/12/13 08:17:23;;;;;;;12.10;8.33;;;11.10;99.90;;;;;;5072573;28;20258;-71
2021/12/13 08:19:56;;;;;;;8.90;7.57;;;11.10;99.90;;;;;;5071968;28;20222;-72
2021/12/13 08:22:28;;;;;;;10.40;7.53;;;11.20;99.90;;;;;;5072293;28;20255;-71
2021/12/13 08:24:57;;;;;;;10.67;6.93;;;11.20;99.90;;;;;;5070453;28;20282;-72
2021/12/13 08:27:33;;;;;;;9.87;7.13;;;11.20;99.90;;;;;;5071705;28;20256;-72
2021/12/13 08:30:08;;;;;;;13.17;7.57;;;11.20;99.90;;;;;;5073071;28;20644;-73
2021/12/13 08:32:34;;;;;;;13.00;7.43;;;11.10;99.90;;;;;;5072075;28;20194;-71
2021/12/13 08:35:02;;;;;;;10.07;6.60;;;11.10;99.90;;;;;;5072085;28;20215;-71
2021/12/13 08:37:35;;;;;;;12.43;7.30;;;11.10;99.90;;;;;;5072435;28;20169;-71
2021/12/13 08:40:24;;;;;;;8.57;6.50;;;11.10;99.90;;;;;;5071697;28;20176;-71
2021/12/13 08:42:53;;;;;;;8.33;6.63;;;11.10;99.90;;;;;;5071329;28;20168;-72
2021/12/13 08:45:28;;;;;;;9.00;7.00;;;11.10;99.90;;;;;;5072140;28;20177;-72
2021/12/13 08:48:04;;;;;;;12.17;7.20;;;11.20;99.90;;;;;;5072033;28;20270;-71
2021/12/13 08:50:40;;;;;;;8.30;6.70;;;11.20;99.90;;;;;;5072170;28;20263;-71
2021/12/13 08:53:19;;;;;;;8.83;6.80;;;11.30;99.90;;;;;;5071738;28;20693;-72
2021/12/13 08:55:55;;;;;;;7.33;6.23;;;11.30;99.90;;;;;;5071716;28;20191;-71
2021/12/13 08:58:21;;;;;;;7.63;6.83;;;11.40;99.90;;;;;;5071762;28;20632;-71
2021/12/13 09:01:05;;;;;;;9.10;6.30;;;11.40;99.90;;;;;;5071982;28;20259;-72
2021/12/13 09:03:40;;;;;;;11.07;6.67;;;11.20;99.90;;;;;;5072196;28;20164;-71
2021/12/13 09:06:09;;;;;;;10.37;6.23;;;11.20;99.90;;;;;;5065998;28;20729;-71
2021/12/13 09:08:41;;;;;;;8.87;6.97;;;11.20;99.90;;;;;;5058260;28;20174;-71
2021/12/13 09:11:31;;;;;;;7.43;6.70;;;11.20;99.90;;;;;;5065223;28;20165;-71
2021/12/13 09:14:24;;;;;;;8.57;6.60;;;11.20;99.90;;;;;;5057649;28;20200;-72
2021/12/13 09:16:54;;;;;;;6.40;5.60;;;11.40;99.90;;;;;;5065966;28;20207;-70
2021/12/13 09:19:29;;;;;;;6.60;5.87;;;11.30;99.90;;;;;;5066931;28;20215;-71
2021/12/13 09:22:13;;;;;;;7.93;6.40;;;11.30;99.90;;;;;;5066844;28;20619;-71
2021/12/13 09:24:54;;;;;;;7.47;6.50;;;11.30;99.90;;;;;;5065370;28;20655;-73
2021/12/13 09:27:31;;;;;;;10.47;5.87;;;11.30;99.90;;;;;;5069890;28;20518;-71
2021/12/13 09:30:29;;;;;;;7.87;5.90;;;11.40;99.90;;;;;;5077038;28;20187;-71
2021/12/13 09:33:20;;;;;;;7.70;6.03;;;11.40;99.90;;;;;;5054743;28;20275;-72
2021/12/13 09:36:08;;;;;;;6.23;5.63;;;11.50;99.90;;;;;;4993941;28;20261;-72
2021/12/13 09:38:42;;;;;;;6.60;6.00;;;11.40;99.90;;;;;;4989141;28;20199;-71
2021/12/13 09:41:27;;;;;;;11.07;6.60;;;11.40;99.90;;;;;;4989559;28;20194;-73
2021/12/13 09:44:14;;;;;;;7.77;6.10;;;11.30;99.90;;;;;;4993273;28;20186;-71
2021/12/13 09:46:58;;;;;;;11.00;6.40;;;11.40;99.90;;;;;;5002628;28;20195;-71
2021/12/13 09:49:35;;;;;;;8.50;6.07;;;11.40;99.90;;;;;;4987863;28;20691;-70
2021/12/13 09:52:12;;;;;;;9.03;6.10;;;11.50;99.90;;;;;;4988345;28;20182;-70
2021/12/13 09:54:46;;;;;;;8.77;5.90;;;11.70;99.90;;;;;;4997169;28;20229;-72
2021/12/13 09:57:20;;;;;;;9.60;5.90;;;11.70;99.90;;;;;;4993445;28;20226;-73
2021/12/13 09:59:51;;;;;;;8.97;6.13;;;11.70;99.90;;;;;;4983202;28;20190;-72
2021/12/13 10:02:32;;;;;;;7.43;5.77;;;11.80;99.90;;;;;;4988006;28;20180;-71
2021/12/13 10:04:59;;;;;;;9.57;6.00;;;11.90;99.90;;;;;;4992202;28;20214;-71
2021/12/13 10:07:37;;;;;;;8.93;5.50;;;11.90;99.90;;;;;;4992465;28;20187;-71
2021/12/13 10:10:15;;;;;;;6.00;5.40;;;11.90;99.90;;;;;;4990247;28;20183;-71
2021/12/13 10:12:55;;;;;;;7.90;5.70;;;11.80;99.90;;;;;;5009068;28;20275;-72
2021/12/13 10:15:32;;;;;;;12.80;6.00;;;11.80;99.90;;;;;;5054616;28;20779;-71
2021/12/13 10:18:12;;;;;;;10.10;5.90;;;11.80;99.90;;;;;;5073100;28;20203;-72
2021/12/13 10:20:47;;;;;;;9.97;5.70;;;11.90;99.90;;;;;;5077303;28;20251;-71
2021/12/13 10:23:17;;;;;;;8.13;5.20;;;12.00;99.90;;;;;;5073030;28;20282;-71
2021/12/13 10:25:46;;;;;;;8.73;5.43;;;12.00;99.90;;;;;;5077391;28;20185;-71
2021/12/13 10:28:17;;;;;;;7.67;4.90;;;12.10;99.90;;;;;;5073671;28;20237;-71
2021/12/13 10:30:51;;;;;;;8.67;5.13;;;12.10;99.90;;;;;;5071097;28;20257;-71
2021/12/13 10:33:18;;;;;;;9.37;5.47;;;12.00;99.90;;;;;;5068912;28;20176;-71
2021/12/13 10:35:45;;;;;;;6.87;5.43;;;12.00;99.90;;;;;;5073984;28;20233;-71
2021/12/13 10:38:15;;;;;;;10.60;5.43;;;12.10;99.90;;;;;;5080791;28;20250;-72
2021/12/13 10:40:43;;;;;;;6.60;4.90;;;12.10;99.90;;;;;;5081280;28;20199;-71
2021/12/13 10:43:18;;;;;;;10.60;5.80;;;12.00;99.90;;;;;;5071643;28;20173;-72
2021/12/13 10:46:02;;;;;;;8.73;5.27;;;12.10;99.90;;;;;;5072988;28;20678;-71
2021/12/13 10:48:31;;;;;;;10.60;5.10;;;12.10;99.90;;;;;;5063608;28;20169;-72
2021/12/13 10:51:07;;;;;;;9.03;5.80;;;12.10;99.90;;;;;;5066465;28;20295;-72
2021/12/13 10:53:34;;;;;;;9.60;5.77;;;12.10;99.90;;;;;;5068256;28;20172;-72
2021/12/13 10:56:06;;;;;;;8.23;5.43;;;12.10;99.90;;;;;;5072691;28;20160;-72
2021/12/13 10:58:35;;;;;;;13.27;6.13;;;12.00;99.90;;;;;;5073178;28;20168;-72
2021/12/13 11:01:09;;;;;;;9.87;5.97;;;12.10;99.90;;;;;;5073197;28;20271;-73
2021/12/13 11:03:37;;;;;;;9.63;6.13;;;12.20;99.90;;;;;;5073067;28;20562;-72
2021/12/13 11:06:04;;;;;;;10.80;6.90;;;12.30;99.90;;;;;;5069906;28;20199;-72
2021/12/13 11:08:31;;;;;;;8.93;5.77;;;12.40;99.90;;;;;;5063151;28;20628;-73
2021/12/13 11:11:06;;;;;;;10.70;6.27;;;12.40;99.90;;;;;;5072801;28;20171;-72
2021/12/13 11:13:35;;;;;;;9.33;6.17;;;12.50;99.90;;;;;;5070565;28;20647;-72
2021/12/13 11:16:18;;;;;;;9.37;5.57;;;12.40;99.90;;;;;;5068501;28;20177;-71
2021/12/13 11:18:45;;;;;;;11.83;9.60;;;12.40;99.90;;;;;;5068029;28;20229;-71
2021/12/13 11:21:26;;;;;;;10.17;6.23;;;12.60;99.90;;;;;;5067032;28;20176;-70
2021/12/13 11:23:52;;;;;;;10.13;6.50;;;12.50;99.90;;;;;;5095585;28;20224;-71
2021/12/13 11:26:22;;;;;;;7.23;6.13;;;12.60;99.90;;;;;;5068049;28;20184;-72
2021/12/13 11:28:48;;;;;;;13.07;9.13;;;12.80;99.90;;;;;;5068972;28;20257;-72
2021/12/13 11:31:28;;;;;;;6.87;5.40;;;12.60;99.90;;;;;;5061590;28;20247;-71
2021/12/13 11:34:03;;;;;;;8.73;5.20;;;12.60;99.90;;;;;;5064107;28;20213;-72
2021/12/13 11:36:45;;;;;;;7.87;5.60;;;12.50;99.90;;;;;;5082584;28;20213;-72
2021/12/13 11:39:32;;;;;;;8.50;6.63;;;12.50;99.90;;;;;;5082767;28;20507;-72
2021/12/13 11:42:33;;;;;;;8.03;5.33;;;12.50;99.90;;;;;;5062118;28;20263;-72
2021/12/13 11:45:27;;;;;;;8.30;5.60;;;12.40;99.90;;;;;;5082483;28;20196;-73
2021/12/13 11:48:21;;;;;;;12.77;5.83;;;12.30;99.90;;;;;;5060483;28;20184;-73
2021/12/13 11:51:10;;;;;;;9.97;6.03;;;12.40;99.90;;;;;;5051242;28;20196;-72
2021/12/13 11:54:03;;;;;;;8.70;5.27;;;12.50;99.90;;;;;;5071153;28;20177;-73
2021/12/13 11:56:54;;;;;;;8.10;5.77;;;12.60;99.90;;;;;;5064990;28;20177;-72
2021/12/13 11:59:39;;;;;;;69.10;44.03;;;12.50;99.90;;;;;;5068987;28;20234;-72
2021/12/13 12:02:23;;;;;;;11.77;7.33;;;12.50;99.90;;;;;;5053833;28;20169;-72
2021/12/13 12:05:23;;;;;;;11.87;6.83;;;12.40;99.90;;;;;;5066065;28;20197;-72
2021/12/13 12:08:35;;;;;;;11.30;6.23;;;12.30;99.90;;;;;;5069157;28;20172;-72
2021/12/13 12:11:23;;;;;;;8.23;5.37;;;12.30;99.90;;;;;;5062342;28;20617;-72
2021/12/13 12:14:10;;;;;;;10.57;7.77;;;12.40;99.90;;;;;;5061227;28;20291;-71
2021/12/13 12:16:43;;;;;;;11.67;5.57;;;12.40;99.90;;;;;;5050175;28;20209;-71
2021/12/13 12:19:21;;;;;;;8.17;5.50;;;12.40;99.90;;;;;;5064872;28;20184;-71
2021/12/13 12:22:06;;;;;;;9.87;5.10;;;12.40;99.90;;;;;;5069153;28;20260;-72
2021/12/13 12:24:38;;;;;;;10.57;5.47;;;12.40;99.90;;;;;;5065115;28;20212;-71
2021/12/13 12:27:29;;;;;;;9.33;5.90;;;12.30;99.90;;;;;;5083425;28;20200;-71
2021/12/13 12:29:59;;;;;;;10.60;6.17;;;12.20;99.90;;;;;;5051908;28;20180;-71
2021/12/13 12:32:34;;;;;;;15.70;5.47;;;12.10;99.90;;;;;;5071711;28;20173;-71
2021/12/13 12:35:03;;;;;;;8.20;5.90;;;12.10;99.90;;;;;;5066379;28;20306;-71
2021/12/13 12:37:31;;;;;;;13.10;5.77;;;12.10;99.90;;;;;;5053533;28;20180;-72
2021/12/13 12:40:09;;;;;;;9.37;6.37;;;12.20;99.90;;;;;;5058414;28;20723;-72
2021/12/13 12:42:36;;;;;;;9.47;6.53;;;12.40;99.90;;;;;;5055719;28;20184;-72
2021/12/13 12:45:13;;;;;;;6.90;5.60;;;12.40;99.90;;;;;;5066223;28;20268;-72
2021/12/13 12:47:57;;;;;;;34.50;29.40;;;12.40;99.90;;;;;;5055346;28;20188;-71
2021/12/13 12:50:34;;;;;;;12.83;6.40;;;12.40;99.90;;;;;;5077556;28;20175;-72
2021/12/13 12:53:07;;;;;;;6.90;6.00;;;12.50;99.90;;;;;;5060501;28;20189;-71
2021/12/13 12:55:58;;;;;;;7.50;4.93;;;12.40;99.90;;;;;;5069880;28;20212;-71
2021/12/13 12:58:31;;;;;;;7.87;5.13;;;12.40;99.90;;;;;;5059419;28;20181;-71
2021/12/13 13:01:00;;;;;;;7.87;5.20;;;12.30;99.90;;;;;;5067881;28;20160;-71
2021/12/13 13:03:33;;;;;;;7.57;5.53;;;12.20;99.90;;;;;;5060313;28;20176;-71
2021/12/13 13:06:10;;;;;;;9.23;5.43;;;12.30;99.90;;;;;;5068075;28;20172;-71
2021/12/13 13:08:39;;;;;;;8.30;6.40;;;12.20;99.90;;;;;;5077707;28;20306;-71
2021/12/13 13:13:50;;;;;;;6.67;4.87;;;12.20;99.90;;;;;;5055780;28;20212;-71
2021/12/13 13:16:19;;;;;;;7.63;5.10;;;12.20;99.90;;;;;;5054921;28;20190;-72
2021/12/13 13:18:46;;;;;;;8.20;5.40;;;12.10;99.90;;;;;;5065453;28;20169;-71
2021/12/13 13:21:14;;;;;;;8.53;5.73;;;12.10;99.90;;;;;;5081693;28;20179;-72
2021/12/13 13:23:44;;;;;;;7.03;4.53;;;12.20;99.90;;;;;;5070710;28;20239;-71
2021/12/13 13:26:11;;;;;;;6.60;4.40;;;12.10;99.90;;;;;;5069914;28;20644;-71
2021/12/13 13:28:42;;;;;;;9.27;7.50;;;12.10;99.90;;;;;;5062681;28;20179;-71